Time;durP1;ratioP1;P1;durP2;ratioP2;P2;SDS_P1;SDS_P2;PMS_P1;PMS_P2;Temp;Humidity;BMP_temperature;BMP_pressure;BME280_temperature;BME280_humidity;BME280_pressure;Samples;Min_cycle;Max_cycle;Signal;HPM_P1;HPM_P2
2021/11/14 00:02:19;;;;;;;21.73;15.43;;;11.80;99.90;;;;;;5035585;28;20220;-83
2021/11/14 00:04:48;;;;;;;24.47;16.97;;;11.80;99.90;;;;;;5033775;28;20660;-84
2021/11/14 00:07:17;;;;;;;23.73;15.73;;;11.90;99.90;;;;;;5034229;28;20364;-86
2021/11/14 00:09:45;;;;;;;27.47;15.97;;;11.90;99.90;;;;;;5037219;28;20518;-85
2021/11/14 00:12:11;;;;;;;21.67;16.07;;;11.90;99.90;;;;;;5037240;28;20246;-84
2021/11/14 00:14:37;;;;;;;22.60;15.37;;;11.90;99.90;;;;;;5033606;28;20209;-84
2021/11/14 00:17:04;;;;;;;27.30;16.80;;;12.00;99.90;;;;;;5041519;28;20204;-83
2021/11/14 00:19:29;;;;;;;23.50;15.80;;;12.00;99.90;;;;;;5051705;28;20177;-83
2021/11/14 00:21:56;;;;;;;23.00;16.70;;;12.00;99.90;;;;;;5056864;28;20189;-82
2021/11/14 00:24:22;;;;;;;25.63;17.17;;;12.10;99.90;;;;;;5055721;28;20226;-84
2021/11/14 00:26:49;;;;;;;22.10;16.13;;;11.90;99.90;;;;;;5041001;28;20180;-84
2021/11/14 00:29:18;;;;;;;21.87;16.53;;;11.90;99.90;;;;;;5037378;28;20235;-84
2021/11/14 00:31:43;;;;;;;23.13;17.30;;;11.90;99.90;;;;;;5036592;28;20625;-84
2021/11/14 00:34:15;;;;;;;20.53;16.23;;;12.00;99.90;;;;;;5038266;28;20223;-85
2021/11/14 00:36:46;;;;;;;23.10;17.17;;;12.10;99.90;;;;;;5036425;28;20181;-83
2021/11/14 00:39:16;;;;;;;24.63;16.87;;;12.10;99.90;;;;;;5036025;28;20196;-82
2021/11/14 00:41:46;;;;;;;22.93;17.17;;;12.10;99.90;;;;;;5036091;28;20177;-84
2021/11/14 00:44:11;;;;;;;22.10;17.17;;;12.00;99.90;;;;;;5036141;28;20221;-84
2021/11/14 00:46:39;;;;;;;22.13;16.37;;;12.10;99.90;;;;;;5036019;28;20189;-84
2021/11/14 00:49:06;;;;;;;23.07;17.77;;;12.00;99.90;;;;;;5037571;28;20264;-84
2021/11/14 00:51:32;;;;;;;23.47;17.20;;;11.90;99.90;;;;;;5036077;28;20177;-85
2021/11/14 00:54:05;;;;;;;23.93;17.63;;;11.90;99.90;;;;;;5035534;28;20182;-85
2021/11/14 00:56:30;;;;;;;21.87;16.63;;;11.90;99.90;;;;;;5036808;28;20216;-85
2021/11/14 00:58:57;;;;;;;22.30;17.47;;;11.90;99.90;;;;;;5035549;28;20201;-85
2021/11/14 01:01:24;;;;;;;22.07;17.63;;;11.90;99.90;;;;;;5036013;28;20634;-84
2021/11/14 01:03:50;;;;;;;22.63;17.30;;;11.80;99.90;;;;;;5036360;28;20259;-83
2021/11/14 01:06:16;;;;;;;23.67;17.97;;;11.80;99.90;;;;;;5035153;28;20193;-84
2021/11/14 01:08:42;;;;;;;22.67;17.63;;;11.90;99.90;;;;;;5035011;28;20607;-83
2021/11/14 01:11:09;;;;;;;29.50;18.23;;;11.90;99.90;;;;;;5036025;28;20178;-85
2021/11/14 01:13:38;;;;;;;22.47;17.20;;;11.90;99.90;;;;;;5037698;28;20185;-84
2021/11/14 01:16:06;;;;;;;23.37;17.47;;;11.90;99.90;;;;;;5036927;28;20204;-85
2021/11/14 01:18:35;;;;;;;25.30;18.40;;;11.80;99.90;;;;;;5039158;28;20180;-82
2021/11/14 01:21:06;;;;;;;27.10;19.13;;;11.80;99.90;;;;;;5043604;28;20606;-82
2021/11/14 01:23:32;;;;;;;21.47;17.67;;;11.70;99.90;;;;;;5049934;28;20205;-84
2021/11/14 01:25:58;;;;;;;25.20;19.73;;;11.60;99.90;;;;;;5045885;28;20237;-84
2021/11/14 01:28:24;;;;;;;22.07;19.53;;;11.60;99.90;;;;;;5055238;28;20177;-81
2021/11/14 01:30:54;;;;;;;25.70;19.47;;;11.70;99.90;;;;;;5057392;28;20170;-82
2021/11/14 01:33:23;;;;;;;23.90;21.33;;;11.60;99.90;;;;;;5058945;28;20192;-82
2021/11/14 01:35:50;;;;;;;23.23;19.63;;;11.60;99.90;;;;;;5042921;28;20177;-82
2021/11/14 01:38:17;;;;;;;25.50;20.57;;;11.80;99.90;;;;;;5058379;28;20185;-83
2021/11/14 01:40:48;;;;;;;26.50;21.03;;;11.90;99.90;;;;;;5058507;28;20157;-83
2021/11/14 01:43:28;;;;;;;25.43;20.97;;;11.90;99.90;;;;;;5058155;28;20197;-82
2021/11/14 01:45:57;;;;;;;23.63;21.00;;;11.80;99.90;;;;;;5053617;28;20184;-83
2021/11/14 01:48:23;;;;;;;25.33;21.00;;;11.70;99.90;;;;;;5042618;28;20188;-84
2021/11/14 01:50:51;;;;;;;27.50;21.93;;;11.70;99.90;;;;;;5039877;28;20181;-84
2021/11/14 01:53:18;;;;;;;24.03;21.37;;;11.80;99.90;;;;;;5039057;28;20189;-83
2021/11/14 01:55:57;;;;;;;24.80;21.90;;;11.80;99.90;;;;;;5036357;28;20643;-84
2021/11/14 01:58:26;;;;;;;25.50;21.20;;;11.90;99.90;;;;;;5036771;28;20173;-85
2021/11/14 02:01:09;;;;;;;24.00;21.40;;;11.90;99.90;;;;;;5038291;28;20268;-83
2021/11/14 02:03:41;;;;;;;26.17;22.17;;;12.10;99.90;;;;;;5044880;28;20218;-84
2021/11/14 02:06:07;;;;;;;23.53;20.90;;;12.10;99.90;;;;;;5043105;28;20252;-82
2021/11/14 02:08:35;;;;;;;26.10;21.10;;;12.30;99.90;;;;;;5045561;28;20189;-83
2021/11/14 02:11:01;;;;;;;29.73;23.47;;;12.20;99.90;;;;;;5045594;28;20166;-85
2021/11/14 02:13:27;;;;;;;27.50;23.93;;;12.30;99.90;;;;;;5044824;28;20166;-84
2021/11/14 02:15:54;;;;;;;31.00;24.17;;;12.10;99.90;;;;;;5042445;28;20162;-83
2021/11/14 02:18:20;;;;;;;26.90;23.87;;;12.20;99.90;;;;;;5043565;28;20182;-83
2021/11/14 02:20:47;;;;;;;32.27;25.00;;;12.10;99.90;;;;;;5039797;28;20210;-83
2021/11/14 02:23:16;;;;;;;27.93;23.03;;;12.00;99.90;;;;;;5037676;28;20255;-83
2021/11/14 02:25:44;;;;;;;32.07;25.77;;;11.90;99.90;;;;;;5039879;28;20308;-83
2021/11/14 02:28:11;;;;;;;30.37;24.83;;;11.80;99.90;;;;;;5036259;28;20260;-83
2021/11/14 02:30:37;;;;;;;28.23;24.43;;;11.80;99.90;;;;;;5043435;28;20166;-83
2021/11/14 02:33:03;;;;;;;28.03;24.43;;;11.80;99.90;;;;;;5048217;28;20170;-83
2021/11/14 02:35:29;;;;;;;29.77;25.73;;;12.00;99.90;;;;;;5048801;28;20182;-83
2021/11/14 02:37:55;;;;;;;31.43;25.17;;;11.90;99.90;;;;;;5045628;28;20253;-84
2021/11/14 02:40:22;;;;;;;30.00;25.23;;;12.10;99.90;;;;;;5050172;28;20207;-83
2021/11/14 02:42:50;;;;;;;30.27;25.03;;;12.20;99.90;;;;;;5047799;28;20200;-83
2021/11/14 02:45:20;;;;;;;28.97;25.27;;;12.30;99.90;;;;;;5049358;28;20303;-82
2021/11/14 02:47:47;;;;;;;29.70;24.43;;;12.10;99.90;;;;;;5045925;28;20169;-84
2021/11/14 02:50:13;;;;;;;28.93;24.57;;;12.10;99.90;;;;;;5054665;28;20185;-83
2021/11/14 02:52:40;;;;;;;27.40;24.07;;;12.10;99.90;;;;;;5054205;28;20173;-83
2021/11/14 02:55:08;;;;;;;30.43;24.27;;;12.10;99.90;;;;;;5057280;28;20156;-82
2021/11/14 02:57:34;;;;;;;29.87;24.33;;;12.00;99.90;;;;;;5056260;28;20162;-83
2021/11/14 02:59:59;;;;;;;28.23;24.57;;;12.00;99.90;;;;;;5056744;28;20168;-83
2021/11/14 03:02:25;;;;;;;32.20;25.07;;;12.00;99.90;;;;;;5056672;28;20183;-84
2021/11/14 03:04:51;;;;;;;30.90;24.80;;;11.90;99.90;;;;;;5049359;28;20214;-83
2021/11/14 03:07:18;;;;;;;31.27;26.53;;;11.90;99.90;;;;;;5037609;28;20207;-84
2021/11/14 03:09:45;;;;;;;32.00;26.37;;;11.90;99.90;;;;;;5038452;28;20630;-84
2021/11/14 03:12:10;;;;;;;30.40;24.97;;;11.80;99.90;;;;;;5040975;28;20154;-82
2021/11/14 03:14:38;;;;;;;29.47;24.37;;;11.80;99.90;;;;;;5053001;28;20193;-83
2021/11/14 03:17:05;;;;;;;30.17;24.73;;;11.70;99.90;;;;;;5055647;28;20186;-82
2021/11/14 03:19:32;;;;;;;34.90;25.93;;;11.70;99.90;;;;;;5054937;28;20177;-82
2021/11/14 03:22:11;;;;;;;35.40;26.93;;;11.70;99.90;;;;;;5042831;28;20177;-83
2021/11/14 03:24:38;;;;;;;36.87;26.47;;;11.70;99.90;;;;;;5020582;28;20249;-83
2021/11/14 03:27:04;;;;;;;37.27;27.20;;;11.70;99.90;;;;;;5033446;28;20177;-84
2021/11/14 03:29:39;;;;;;;42.20;29.20;;;11.60;99.90;;;;;;5033323;28;20539;-84
2021/11/14 03:32:21;;;;;;;50.33;31.67;;;11.50;99.90;;;;;;5033117;28;20172;-84
2021/11/14 03:34:53;;;;;;;44.13;29.30;;;11.60;99.90;;;;;;5033584;28;20264;-82
2021/11/14 03:37:21;;;;;;;48.17;32.67;;;11.60;99.90;;;;;;5033150;28;20231;-83
2021/11/14 03:39:48;;;;;;;49.60;31.33;;;11.40;99.90;;;;;;5034049;28;20265;-86
2021/11/14 03:42:14;;;;;;;46.57;30.33;;;11.50;99.90;;;;;;5032839;28;20188;-83
2021/11/14 03:44:42;;;;;;;46.27;32.30;;;11.50;99.90;;;;;;5033387;28;20209;-83
2021/11/14 03:47:09;;;;;;;56.97;35.80;;;11.50;99.90;;;;;;5033829;28;20257;-83
2021/11/14 03:49:35;;;;;;;51.57;33.33;;;11.50;99.90;;;;;;5032401;28;20235;-82
2021/11/14 03:52:09;;;;;;;55.13;33.93;;;11.50;99.90;;;;;;5032616;28;20174;-84
2021/11/14 03:54:36;;;;;;;49.33;33.60;;;11.50;99.90;;;;;;5032261;28;20186;-84
2021/11/14 03:57:02;;;;;;;58.57;33.70;;;11.50;99.90;;;;;;5034301;28;20178;-84
2021/11/14 03:59:28;;;;;;;59.93;35.60;;;11.50;99.90;;;;;;5036567;28;20668;-83
2021/11/14 04:01:53;;;;;;;59.90;35.83;;;11.40;99.90;;;;;;5036752;28;20166;-84
2021/11/14 04:04:19;;;;;;;63.80;35.37;;;11.40;99.90;;;;;;5036324;28;20213;-86
2021/11/14 04:06:45;;;;;;;64.20;37.50;;;11.40;99.90;;;;;;5036454;28;20293;-83
2021/11/14 04:09:10;;;;;;;60.37;36.43;;;11.50;99.90;;;;;;5041050;28;20185;-83
2021/11/14 04:11:36;;;;;;;65.07;37.33;;;11.50;99.90;;;;;;5037843;28;20197;-84
2021/11/14 04:14:02;;;;;;;68.77;38.07;;;11.60;99.90;;;;;;5036347;28;20634;-85
2021/11/14 04:16:28;;;;;;;67.10;39.50;;;11.50;99.90;;;;;;5037604;28;20173;-83
2021/11/14 04:18:53;;;;;;;63.93;36.60;;;11.50;99.90;;;;;;5037427;28;20537;-82
2021/11/14 04:21:19;;;;;;;70.17;38.90;;;11.50;99.90;;;;;;5037570;28;20675;-83
2021/11/14 04:23:45;;;;;;;65.00;37.57;;;11.50;99.90;;;;;;5044735;28;20685;-82
2021/11/14 04:26:11;;;;;;;61.20;37.80;;;11.50;99.90;;;;;;5040339;28;20174;-85
2021/11/14 04:28:37;;;;;;;60.07;36.33;;;11.50;99.90;;;;;;5034395;28;20170;-83
2021/11/14 04:31:03;;;;;;;62.47;37.73;;;11.40;99.90;;;;;;5035916;28;20512;-84
2021/11/14 04:33:30;;;;;;;58.10;35.57;;;11.40;99.90;;;;;;5036163;28;20189;-84
2021/11/14 04:35:56;;;;;;;63.03;37.07;;;11.40;99.90;;;;;;5047804;28;20245;-83
2021/11/14 04:38:22;;;;;;;55.60;36.30;;;11.50;99.90;;;;;;5058002;28;20168;-84
2021/11/14 04:40:50;;;;;;;57.87;35.27;;;11.50;99.90;;;;;;5060123;28;20235;-82
2021/11/14 04:43:19;;;;;;;56.10;34.97;;;11.50;99.90;;;;;;5055415;28;20211;-84
2021/11/14 04:45:49;;;;;;;54.90;36.83;;;11.50;99.90;;;;;;5043963;28;20180;-84
2021/11/14 04:48:15;;;;;;;60.77;36.20;;;11.70;99.90;;;;;;5040198;28;20193;-84
2021/11/14 04:51:07;;;;;;;61.43;37.87;;;11.50;99.90;;;;;;5036126;28;20173;-84
2021/11/14 04:53:33;;;;;;;58.67;38.03;;;11.50;99.90;;;;;;5041648;28;20181;-83
2021/11/14 04:55:58;;;;;;;57.47;37.07;;;11.40;99.90;;;;;;5041009;28;20170;-84
2021/11/14 04:58:24;;;;;;;60.90;38.60;;;11.50;99.90;;;;;;5037272;28;20256;-83
2021/11/14 05:00:52;;;;;;;64.23;39.23;;;11.50;99.90;;;;;;5035831;28;20173;-83
2021/11/14 05:03:19;;;;;;;63.13;40.00;;;11.50;99.90;;;;;;5035322;28;20197;-84
2021/11/14 05:05:46;;;;;;;59.97;39.10;;;11.50;99.90;;;;;;5035339;28;20185;-83
2021/11/14 05:08:11;;;;;;;60.90;39.77;;;11.50;99.90;;;;;;5034617;28;20207;-84
2021/11/14 05:10:38;;;;;;;57.77;38.77;;;11.50;99.90;;;;;;5018717;28;20269;-83
2021/11/14 05:13:04;;;;;;;60.37;41.07;;;11.60;99.90;;;;;;5045536;28;20169;-83
2021/11/14 05:15:31;;;;;;;60.93;39.87;;;11.50;99.90;;;;;;5048214;28;20181;-83
2021/11/14 05:17:56;;;;;;;61.27;40.23;;;11.60;99.90;;;;;;5049265;28;20564;-83
2021/11/14 05:20:22;;;;;;;61.87;38.93;;;11.60;99.90;;;;;;5039653;28;20639;-83
2021/11/14 05:22:48;;;;;;;62.13;39.67;;;11.50;99.90;;;;;;5036419;28;20170;-83
2021/11/14 05:25:14;;;;;;;56.23;38.60;;;11.40;99.90;;;;;;5036727;28;20708;-83
2021/11/14 05:27:39;;;;;;;58.80;38.47;;;11.50;99.90;;;;;;5042299;28;20170;-83
2021/11/14 05:30:08;;;;;;;50.93;35.47;;;11.60;99.90;;;;;;5037071;28;20181;-84
2021/11/14 05:32:33;;;;;;;55.10;35.97;;;11.40;99.90;;;;;;5034615;28;20174;-83
2021/11/14 05:34:59;;;;;;;53.47;34.77;;;11.40;99.90;;;;;;5035654;28;20560;-86
2021/11/14 05:37:25;;;;;;;55.97;35.87;;;11.40;99.90;;;;;;5034573;28;20646;-85
2021/11/14 05:39:51;;;;;;;58.50;37.97;;;11.40;99.90;;;;;;5034622;28;20178;-85
2021/11/14 05:42:17;;;;;;;54.77;38.63;;;11.40;99.90;;;;;;5034806;28;20591;-85
2021/11/14 05:44:43;;;;;;;53.00;35.57;;;11.40;99.90;;;;;;5034358;28;20209;-84
2021/11/14 05:47:09;;;;;;;50.73;37.70;;;11.40;99.90;;;;;;5034913;28;20539;-84
2021/11/14 05:49:35;;;;;;;54.17;35.93;;;11.40;99.90;;;;;;5035662;28;20181;-84
2021/11/14 05:52:01;;;;;;;54.43;34.23;;;11.40;99.90;;;;;;5035592;28;20260;-84
2021/11/14 05:54:27;;;;;;;48.07;33.37;;;11.40;99.90;;;;;;5033649;28;20177;-84
2021/11/14 05:56:53;;;;;;;49.43;33.57;;;11.40;99.90;;;;;;5036847;28;20169;-83
2021/11/14 06:02:10;;;;;;;44.47;31.13;;;11.50;99.90;;;;;;5040836;28;20173;-82
2021/11/14 06:07:04;;;;;;;47.37;28.53;;;11.40;99.90;;;;;;5048355;28;20263;-83
2021/11/14 06:09:30;;;;;;;46.60;29.80;;;11.40;99.90;;;;;;5054627;28;20186;-83
2021/11/14 06:11:55;;;;;;;42.77;28.77;;;11.40;99.90;;;;;;5054953;28;20190;-82
2021/11/14 06:14:24;;;;;;;43.57;30.37;;;11.30;99.90;;;;;;5046014;28;20188;-84
2021/11/14 06:16:53;;;;;;;45.47;31.23;;;11.30;99.90;;;;;;5036344;28;20172;-84
2021/11/14 06:19:22;;;;;;;45.73;30.27;;;11.30;99.90;;;;;;5034645;28;20172;-83
2021/11/14 06:21:47;;;;;;;47.20;30.03;;;11.20;99.90;;;;;;5034787;28;20247;-84
2021/11/14 06:24:13;;;;;;;46.57;31.93;;;11.30;99.90;;;;;;5036621;28;20221;-82
2021/11/14 06:26:39;;;;;;;49.33;30.37;;;11.20;99.90;;;;;;5038943;28;20180;-83
2021/11/14 06:29:05;;;;;;;41.03;30.20;;;11.20;99.90;;;;;;5039165;28;20248;-83
2021/11/14 06:31:31;;;;;;;45.43;30.47;;;11.20;99.90;;;;;;5034465;28;20184;-83
2021/11/14 06:33:56;;;;;;;42.40;29.30;;;11.10;99.90;;;;;;5036979;28;20169;-84
2021/11/14 06:36:23;;;;;;;41.83;29.10;;;11.10;99.90;;;;;;5034634;28;20188;-84
2021/11/14 06:38:49;;;;;;;45.50;29.87;;;11.10;99.90;;;;;;5034972;28;20231;-83
2021/11/14 06:41:14;;;;;;;51.20;32.77;;;11.10;99.90;;;;;;5033310;28;20181;-84
2021/11/14 06:43:40;;;;;;;53.27;32.50;;;11.10;99.90;;;;;;5033741;28;20689;-83
2021/11/14 06:46:06;;;;;;;46.73;31.87;;;11.10;99.90;;;;;;5035541;28;20213;-82
2021/11/14 06:48:32;;;;;;;46.90;32.07;;;11.10;99.90;;;;;;5033676;28;20173;-84
2021/11/14 06:50:58;;;;;;;45.33;32.13;;;11.10;99.90;;;;;;5032949;28;20227;-84
2021/11/14 06:53:24;;;;;;;44.80;29.17;;;11.20;99.90;;;;;;5035081;28;20169;-86
2021/11/14 06:55:49;;;;;;;46.10;30.60;;;11.10;99.90;;;;;;5034311;28;20572;-84
2021/11/14 06:58:15;;;;;;;46.47;31.53;;;11.10;99.90;;;;;;5034037;28;20182;-85
2021/11/14 07:00:42;;;;;;;44.80;30.90;;;11.10;99.90;;;;;;5034089;28;20625;-82
2021/11/14 07:03:09;;;;;;;46.70;32.60;;;11.10;99.90;;;;;;5034293;28;20637;-83
2021/11/14 07:05:35;;;;;;;45.37;32.40;;;11.20;99.90;;;;;;5037527;28;20217;-83
2021/11/14 07:08:01;;;;;;;44.20;29.60;;;11.20;99.90;;;;;;5038373;28;20201;-84
2021/11/14 07:10:26;;;;;;;48.03;32.90;;;11.20;99.90;;;;;;5045429;28;20684;-82
2021/11/14 07:12:52;;;;;;;47.27;31.13;;;11.10;99.90;;;;;;5045904;28;20173;-84
2021/11/14 07:15:18;;;;;;;51.20;30.63;;;11.10;99.90;;;;;;5045572;28;20169;-85
2021/11/14 07:17:44;;;;;;;48.33;31.93;;;11.00;99.90;;;;;;5035824;28;20181;-85
2021/11/14 07:20:12;;;;;;;53.30;32.47;;;10.90;99.90;;;;;;5034573;28;20165;-85
2021/11/14 07:22:38;;;;;;;55.70;33.97;;;10.90;99.90;;;;;;5034627;28;20170;-84
2021/11/14 07:25:05;;;;;;;52.40;31.77;;;11.00;99.90;;;;;;5033727;28;20217;-84
2021/11/14 07:27:31;;;;;;;58.57;36.70;;;11.00;99.90;;;;;;5036567;28;20170;-84
2021/11/14 07:29:57;;;;;;;59.93;36.77;;;11.00;99.90;;;;;;5017632;28;20688;-87
2021/11/14 07:32:23;;;;;;;56.57;36.07;;;11.10;99.90;;;;;;5032919;28;20170;-84
2021/11/14 07:34:51;;;;;;;55.80;34.47;;;11.00;99.90;;;;;;5032751;28;20586;-84
2021/11/14 07:37:17;;;;;;;54.53;34.70;;;11.00;99.90;;;;;;5033380;28;20172;-84
2021/11/14 07:39:43;;;;;;;56.57;34.13;;;11.00;99.90;;;;;;5033619;28;20185;-85
2021/11/14 07:42:08;;;;;;;52.83;31.97;;;11.00;99.90;;;;;;5035757;28;20170;-83
2021/11/14 07:44:34;;;;;;;53.77;34.60;;;10.90;99.90;;;;;;5047267;28;20311;-84
2021/11/14 07:47:00;;;;;;;53.03;33.20;;;11.00;99.90;;;;;;5055625;28;20626;-82
2021/11/14 07:49:26;;;;;;;50.90;32.37;;;11.00;99.90;;;;;;5053455;28;20197;-83
2021/11/14 07:51:52;;;;;;;53.23;31.93;;;10.90;99.90;;;;;;5057013;28;20275;-83
2021/11/14 07:54:17;;;;;;;51.03;31.87;;;10.90;99.90;;;;;;5054541;28;20166;-83
2021/11/14 07:56:44;;;;;;;56.00;34.23;;;10.80;99.90;;;;;;5047035;28;20256;-83
2021/11/14 07:59:16;;;;;;;51.90;33.27;;;10.80;99.90;;;;;;5047763;28;20162;-83
2021/11/14 08:01:42;;;;;;;57.80;35.53;;;11.00;99.90;;;;;;5036084;28;20180;-84
2021/11/14 08:04:08;;;;;;;61.07;35.73;;;10.90;99.90;;;;;;5036508;28;20277;-84
2021/11/14 08:06:35;;;;;;;55.40;34.27;;;11.00;99.90;;;;;;5035090;28;20185;-84
2021/11/14 08:09:01;;;;;;;54.37;34.17;;;11.00;99.90;;;;;;5033736;28;20185;-84
2021/11/14 08:11:27;;;;;;;57.33;34.17;;;10.90;99.90;;;;;;5034104;28;20170;-84
2021/11/14 08:13:53;;;;;;;58.57;35.33;;;10.90;99.90;;;;;;5033998;28;20537;-85
2021/11/14 08:16:19;;;;;;;58.83;34.53;;;10.80;99.90;;;;;;5033778;28;20178;-85
2021/11/14 08:18:44;;;;;;;58.43;33.90;;;10.80;99.90;;;;;;5034213;28;20535;-83
2021/11/14 08:21:10;;;;;;;58.17;33.80;;;10.80;99.90;;;;;;5036955;28;20174;-85
2021/11/14 08:23:36;;;;;;;57.93;36.23;;;10.70;99.90;;;;;;5034486;28;20276;-83
2021/11/14 08:26:02;;;;;;;62.53;37.17;;;10.70;99.90;;;;;;5033734;28;20174;-83
2021/11/14 08:28:27;;;;;;;68.30;37.47;;;10.80;99.90;;;;;;5033519;28;20178;-84
2021/11/14 08:30:53;;;;;;;65.70;36.07;;;10.80;99.90;;;;;;5034364;28;20173;-85
2021/11/14 08:33:20;;;;;;;64.07;34.70;;;10.80;99.90;;;;;;5035483;28;20499;-82
2021/11/14 08:35:45;;;;;;;62.10;34.77;;;10.80;99.90;;;;;;5035740;28;20173;-84
2021/11/14 08:38:11;;;;;;;63.17;36.40;;;10.70;99.90;;;;;;5036798;28;20243;-83
2021/11/14 08:40:39;;;;;;;61.73;33.80;;;10.70;99.90;;;;;;5036065;28;20631;-84
2021/11/14 08:43:07;;;;;;;63.37;35.37;;;10.70;99.90;;;;;;5033474;28;20181;-82
2021/11/14 08:45:34;;;;;;;64.30;36.77;;;10.70;99.90;;;;;;5039245;28;20650;-85
2021/11/14 08:48:00;;;;;;;59.50;35.13;;;10.70;99.90;;;;;;5039079;28;20209;-83
2021/11/14 08:50:27;;;;;;;64.00;35.77;;;10.80;99.90;;;;;;5039008;28;20700;-83
2021/11/14 08:52:55;;;;;;;69.40;37.07;;;10.80;99.90;;;;;;5039446;28;20189;-83
2021/11/14 08:55:23;;;;;;;60.33;36.70;;;10.80;99.90;;;;;;5038395;28;20189;-83
2021/11/14 08:57:52;;;;;;;61.87;33.60;;;10.90;99.90;;;;;;5040453;28;20484;-82
2021/11/14 09:00:21;;;;;;;63.73;35.67;;;10.90;99.90;;;;;;5049554;28;20162;-83
2021/11/14 09:02:51;;;;;;;58.53;33.80;;;11.00;99.90;;;;;;5047937;28;20703;-83
2021/11/14 09:05:21;;;;;;;58.10;34.40;;;10.90;99.90;;;;;;5047287;28;20205;-84
2021/11/14 09:07:48;;;;;;;64.67;37.80;;;11.00;99.90;;;;;;5051983;28;20640;-85
2021/11/14 09:10:14;;;;;;;63.13;36.13;;;11.00;99.90;;;;;;5045604;28;20182;-84
2021/11/14 09:12:46;;;;;;;60.57;34.30;;;11.00;99.90;;;;;;5051553;28;20180;-85
2021/11/14 09:15:13;;;;;;;56.77;32.37;;;11.00;99.90;;;;;;5048140;28;20180;-86
2021/11/14 09:18:02;;;;;;;58.87;35.07;;;11.00;99.90;;;;;;5038335;28;20177;-85
2021/11/14 09:20:31;;;;;;;62.23;34.67;;;11.00;99.90;;;;;;5036431;28;20249;-84
2021/11/14 09:22:58;;;;;;;61.80;35.20;;;11.00;99.90;;;;;;5039731;28;20173;-85
2021/11/14 09:25:24;;;;;;;63.37;34.23;;;11.00;99.90;;;;;;5040848;28;20213;-83
2021/11/14 09:27:51;;;;;;;60.13;35.27;;;11.00;99.90;;;;;;5044645;28;20166;-85
2021/11/14 09:30:18;;;;;;;62.17;35.03;;;11.10;99.90;;;;;;5044405;28;20169;-84
2021/11/14 09:32:45;;;;;;;56.43;32.17;;;11.10;99.90;;;;;;5039957;28;20177;-85
2021/11/14 09:35:11;;;;;;;63.53;36.73;;;11.10;99.90;;;;;;5036611;28;20178;-83
2021/11/14 09:37:37;;;;;;;62.63;33.23;;;11.10;99.90;;;;;;5051926;28;20201;-83
2021/11/14 09:40:09;;;;;;;61.33;36.13;;;11.00;99.90;;;;;;5056201;28;20178;-85
2021/11/14 09:42:36;;;;;;;56.83;34.70;;;11.10;99.90;;;;;;5057295;28;20166;-83
2021/11/14 09:45:05;;;;;;;61.33;36.00;;;11.00;99.90;;;;;;5044250;28;20216;-87
2021/11/14 09:47:33;;;;;;;63.53;36.77;;;11.10;99.90;;;;;;5042005;28;20653;-84
2021/11/14 09:50:03;;;;;;;61.67;35.60;;;11.10;99.90;;;;;;5038242;28;20180;-84
2021/11/14 09:52:30;;;;;;;59.70;36.30;;;11.20;99.90;;;;;;5044123;28;20166;-82
2021/11/14 09:54:58;;;;;;;59.03;35.47;;;11.10;99.90;;;;;;5043392;28;20192;-82
2021/11/14 09:57:24;;;;;;;58.63;34.17;;;11.10;99.90;;;;;;5042284;28;20174;-83
2021/11/14 09:59:50;;;;;;;60.10;35.17;;;11.20;99.90;;;;;;5055622;28;20638;-82
2021/11/14 10:02:18;;;;;;;57.20;35.83;;;11.20;99.90;;;;;;5039472;28;20186;-84
2021/11/14 10:04:44;;;;;;;60.03;36.97;;;11.00;99.90;;;;;;5039180;28;20210;-84
2021/11/14 10:07:17;;;;;;;54.60;33.10;;;11.20;99.90;;;;;;5034366;28;20201;-82
2021/11/14 10:09:51;;;;;;;57.40;35.10;;;11.30;99.90;;;;;;5035808;28;20747;-83
2021/11/14 10:12:19;;;;;;;55.33;33.37;;;11.20;99.90;;;;;;5036679;28;20204;-83
2021/11/14 10:14:51;;;;;;;62.17;37.90;;;11.20;99.90;;;;;;5037748;28;20178;-82
2021/11/14 10:17:24;;;;;;;54.13;33.60;;;11.20;99.90;;;;;;5036210;28;20594;-82
2021/11/14 10:20:12;;;;;;;53.47;32.90;;;11.20;99.90;;;;;;5037035;28;20626;-84
2021/11/14 10:22:43;;;;;;;59.50;35.93;;;11.20;99.90;;;;;;5039033;28;20181;-87
2021/11/14 10:25:12;;;;;;;61.73;36.43;;;11.20;99.90;;;;;;5041467;28;20202;-85
2021/11/14 10:27:40;;;;;;;58.77;35.23;;;11.20;99.90;;;;;;5041701;28;20256;-83
2021/11/14 10:30:09;;;;;;;59.70;37.47;;;11.20;99.90;;;;;;5039479;28;20587;-84
2021/11/14 10:32:37;;;;;;;65.97;38.50;;;11.10;99.90;;;;;;5038712;28;20181;-84
2021/11/14 10:35:04;;;;;;;64.50;37.33;;;11.10;99.90;;;;;;5036259;28;20177;-84
2021/11/14 10:37:33;;;;;;;56.70;34.23;;;11.20;99.90;;;;;;5037456;28;20178;-83
2021/11/14 10:40:03;;;;;;;61.43;38.07;;;11.20;99.90;;;;;;5040054;28;20238;-85
2021/11/14 10:42:34;;;;;;;58.43;37.27;;;11.20;99.90;;;;;;5035975;28;20177;-85
2021/11/14 10:45:04;;;;;;;64.10;38.20;;;11.20;99.90;;;;;;5024736;28;20486;-85
2021/11/14 10:47:32;;;;;;;56.77;34.83;;;11.20;99.90;;;;;;5036930;28;20246;-84
2021/11/14 10:50:07;;;;;;;55.13;35.70;;;11.30;99.90;;;;;;5041275;28;20186;-85
2021/11/14 10:52:35;;;;;;;56.20;34.57;;;11.20;99.90;;;;;;5019973;28;20592;-85
2021/11/14 10:55:09;;;;;;;60.53;36.50;;;11.10;99.90;;;;;;5017495;28;20643;-86
2021/11/14 10:57:37;;;;;;;56.40;35.53;;;11.20;99.90;;;;;;5020015;28;20170;-83
2021/11/14 11:00:11;;;;;;;55.67;35.43;;;11.20;99.90;;;;;;5020588;28;20230;-84
2021/11/14 11:02:41;;;;;;;56.87;34.17;;;11.20;99.90;;;;;;5018558;28;20185;-85
2021/11/14 11:05:24;;;;;;;63.20;38.03;;;11.10;99.90;;;;;;5017547;28;20257;-84
2021/11/14 11:08:11;;;;;;;62.20;37.90;;;11.20;99.90;;;;;;5021905;28;20186;-85
2021/11/14 11:10:44;;;;;;;55.17;35.67;;;11.10;99.90;;;;;;5020661;28;20178;-86
2021/11/14 11:13:18;;;;;;;59.10;37.27;;;11.10;99.90;;;;;;5000647;28;20185;-86
2021/11/14 11:15:49;;;;;;;54.77;33.67;;;11.10;99.90;;;;;;5015771;28;20527;-84
2021/11/14 11:18:17;;;;;;;51.97;35.70;;;11.10;99.90;;;;;;5034644;28;20348;-84
2021/11/14 11:20:50;;;;;;;51.63;35.07;;;11.00;99.90;;;;;;5034296;28;20596;-84
2021/11/14 11:23:18;;;;;;;55.80;34.63;;;11.00;99.90;;;;;;5036033;28;20181;-85
2021/11/14 11:25:56;;;;;;;52.87;33.73;;;11.10;99.90;;;;;;5036964;28;20201;-83
2021/11/14 11:28:35;;;;;;;46.77;31.63;;;11.10;99.90;;;;;;5039051;28;20196;-85
2021/11/14 11:31:16;;;;;;;47.93;31.07;;;11.00;99.90;;;;;;5040614;28;20204;-82
2021/11/14 11:33:45;;;;;;;45.40;32.00;;;11.00;99.90;;;;;;5052745;28;20169;-84
2021/11/14 11:36:12;;;;;;;40.90;28.20;;;11.10;99.90;;;;;;5052986;28;20161;-84
2021/11/14 11:38:42;;;;;;;39.00;26.30;;;11.00;99.90;;;;;;5057020;28;20165;-83
2021/11/14 11:41:08;;;;;;;41.63;27.77;;;11.00;99.90;;;;;;5056795;28;20174;-86
2021/11/14 11:44:03;;;;;;;40.43;27.83;;;11.00;99.90;;;;;;5047353;28;20229;-84
2021/11/14 11:46:39;;;;;;;39.43;27.50;;;11.00;99.90;;;;;;5049073;28;20185;-85
2021/11/14 11:49:08;;;;;;;39.50;27.63;;;11.10;99.90;;;;;;5042186;28;20184;-85
2021/11/14 11:51:47;;;;;;;40.77;28.50;;;11.00;99.90;;;;;;5041145;28;20182;-84
2021/11/14 11:54:17;;;;;;;39.17;26.87;;;11.10;99.90;;;;;;5042832;28;20169;-84
2021/11/14 11:57:10;;;;;;;40.43;27.83;;;11.10;99.90;;;;;;5042935;28;20200;-85
2021/11/14 11:59:55;;;;;;;39.37;28.00;;;11.10;99.90;;;;;;5042395;28;20185;-85
2021/11/14 12:02:30;;;;;;;38.33;26.77;;;11.10;99.90;;;;;;5037762;28;20185;-85
2021/11/14 12:05:04;;;;;;;38.53;26.77;;;11.10;99.90;;;;;;5035537;28;20274;-84
2021/11/14 12:07:33;;;;;;;37.13;25.73;;;11.00;99.90;;;;;;5037004;28;20260;-84
2021/11/14 12:10:17;;;;;;;37.37;25.77;;;11.10;99.90;;;;;;5043214;28;20264;-84
2021/11/14 12:13:03;;;;;;;33.87;25.97;;;11.10;99.90;;;;;;5045318;28;20204;-84
2021/11/14 12:15:37;;;;;;;32.87;22.80;;;11.20;99.90;;;;;;5047854;28;20192;-85
2021/11/14 12:18:07;;;;;;;33.87;23.53;;;11.20;99.90;;;;;;5026202;28;20196;-84
2021/11/14 12:20:42;;;;;;;28.63;21.70;;;11.20;99.90;;;;;;5040631;28;20227;-84
2021/11/14 12:23:20;;;;;;;28.73;22.63;;;11.20;99.90;;;;;;5038752;28;20556;-84
2021/11/14 12:25:48;;;;;;;30.97;23.57;;;11.30;99.90;;;;;;5037179;28;20229;-84
2021/11/14 12:28:19;;;;;;;32.03;24.00;;;11.20;99.90;;;;;;5041080;28;20177;-84
2021/11/14 12:31:10;;;;;;;34.40;25.70;;;11.40;99.90;;;;;;5043047;28;20173;-84
2021/11/14 12:33:48;;;;;;;33.33;22.13;;;11.40;99.90;;;;;;5037916;28;20178;-84
2021/11/14 12:36:33;;;;;;;33.33;24.87;;;11.40;99.90;;;;;;5033651;28;20170;-84
2021/11/14 12:39:24;;;;;;;33.70;23.77;;;11.40;99.90;;;;;;5038030;28;20218;-84
2021/11/14 12:42:09;;;;;;;32.80;23.43;;;11.30;99.90;;;;;;5039715;28;20178;-83